sensor_id;sensor_type;location;lat;lon;timestamp;temperature;humidity
31455;DHT22;18084;53.028;8.834;2023-01-01T00:00:32;15.10;1.00
31455;DHT22;18084;53.028;8.834;2023-01-01T00:02:58;15.20;1.00
31455;DHT22;18084;53.028;8.834;2023-01-01T00:05:23;15.30;1.00
31455;DHT22;18084;53.028;8.834;2023-01-01T00:07:49;15.30;1.00
31455;DHT22;18084;53.028;8.834;2023-01-01T00:10:14;15.30;1.00
31455;DHT22;18084;53.028;8.834;2023-01-01T00:12:58;15.30;1.00
31455;DHT22;18084;53.028;8.834;2023-01-01T00:15:24;15.30;1.00
31455;DHT22;18084;53.028;8.834;2023-01-01T00:17:49;15.30;1.00
31455;DHT22;18084;53.028;8.834;2023-01-01T00:20:15;15.20;1.00
31455;DHT22;18084;53.028;8.834;2023-01-01T00:22:40;15.20;1.00
31455;DHT22;18084;53.028;8.834;2023-01-01T00:25:06;15.20;1.00
31455;DHT22;18084;53.028;8.834;2023-01-01T00:27:31;15.20;1.00
31455;DHT22;18084;53.028;8.834;2023-01-01T00:29:57;15.30;1.00
31455;DHT22;18084;53.028;8.834;2023-01-01T00:32:22;15.30;1.00
31455;DHT22;18084;53.028;8.834;2023-01-01T00:34:48;15.30;1.00
31455;DHT22;18084;53.028;8.834;2023-01-01T00:37:13;15.30;1.00
31455;DHT22;18084;53.028;8.834;2023-01-01T00:39:39;15.40;1.00
31455;DHT22;18084;53.028;8.834;2023-01-01T00:42:05;15.40;1.00
31455;DHT22;18084;53.028;8.834;2023-01-01T00:44:30;15.40;1.00
31455;DHT22;18084;53.028;8.834;2023-01-01T00:46:56;15.40;1.00
31455;DHT22;18084;53.028;8.834;2023-01-01T00:49:21;15.40;1.00
31455;DHT22;18084;53.028;8.834;2023-01-01T00:51:47;15.40;1.00
31455;DHT22;18084;53.028;8.834;2023-01-01T00:54:12;15.40;1.00
31455;DHT22;18084;53.028;8.834;2023-01-01T00:56:38;15.50;1.00
31455;DHT22;18084;53.028;8.834;2023-01-01T00:59:03;15.60;1.00
31455;DHT22;18084;53.028;8.834;2023-01-01T01:01:28;15.50;1.00
31455;DHT22;18084;53.028;8.834;2023-01-01T01:03:54;15.50;1.00
31455;DHT22;18084;53.028;8.834;2023-01-01T01:06:19;15.50;1.00
31455;DHT22;18084;53.028;8.834;2023-01-01T01:08:46;15.50;1.00
31455;DHT22;18084;53.028;8.834;2023-01-01T01:11:13;15.50;1.00
31455;DHT22;18084;53.028;8.834;2023-01-01T01:13:39;15.50;1.00
31455;DHT22;18084;53.028;8.834;2023-01-01T01:16:38;15.60;1.00
31455;DHT22;18084;53.028;8.834;2023-01-01T01:18:57;15.60;1.00
31455;DHT22;18084;53.028;8.834;2023-01-01T01:21:24;15.70;1.00
31455;DHT22;18084;53.028;8.834;2023-01-01T01:23:50;15.60;1.00
31455;DHT22;18084;53.028;8.834;2023-01-01T01:26:17;15.60;1.00
31455;DHT22;18084;53.028;8.834;2023-01-01T01:28:43;15.50;1.00
31455;DHT22;18084;53.028;8.834;2023-01-01T01:31:09;15.50;1.00
31455;DHT22;18084;53.028;8.834;2023-01-01T01:33:34;15.40;1.00
31455;DHT22;18084;53.028;8.834;2023-01-01T01:36:00;15.40;1.00
31455;DHT22;18084;53.028;8.834;2023-01-01T01:38:26;15.40;1.00
31455;DHT22;18084;53.028;8.834;2023-01-01T01:40:51;15.40;1.00
31455;DHT22;18084;53.028;8.834;2023-01-01T01:43:22;15.40;1.00
31455;DHT22;18084;53.028;8.834;2023-01-01T01:45:49;15.50;1.00
31455;DHT22;18084;53.028;8.834;2023-01-01T01:48:15;15.50;1.00
31455;DHT22;18084;53.028;8.834;2023-01-01T01:50:41;15.50;1.00
31455;DHT22;18084;53.028;8.834;2023-01-01T01:55:45;15.50;1.00
31455;DHT22;18084;53.028;8.834;2023-01-01T01:58:11;15.40;1.00
31455;DHT22;18084;53.028;8.834;2023-01-01T02:00:37;15.50;1.00
31455;DHT22;18084;53.028;8.834;2023-01-01T02:03:05;15.50;1.00
31455;DHT22;18084;53.028;8.834;2023-01-01T02:05:32;15.50;1.00
31455;DHT22;18084;53.028;8.834;2023-01-01T02:07:58;15.60;1.00
31455;DHT22;18084;53.028;8.834;2023-01-01T02:10:24;15.50;1.00
31455;DHT22;18084;53.028;8.834;2023-01-01T02:12:50;15.40;1.00
31455;DHT22;18084;53.028;8.834;2023-01-01T02:15:16;15.40;1.00
31455;DHT22;18084;53.028;8.834;2023-01-01T02:17:43;15.40;1.00
31455;DHT22;18084;53.028;8.834;2023-01-01T02:20:22;15.30;1.00
31455;DHT22;18084;53.028;8.834;2023-01-01T02:30:14;15.20;1.00
31455;DHT22;18084;53.028;8.834;2023-01-01T02:32:44;15.20;1.00
31455;DHT22;18084;53.028;8.834;2023-01-01T02:37:56;15.20;1.00
31455;DHT22;18084;53.028;8.834;2023-01-01T02:40:23;15.10;1.00
31455;DHT22;18084;53.028;8.834;2023-01-01T02:42:49;15.10;1.00
31455;DHT22;18084;53.028;8.834;2023-01-01T02:45:16;15.10;1.00
31455;DHT22;18084;53.028;8.834;2023-01-01T02:47:42;15.10;1.00
31455;DHT22;18084;53.028;8.834;2023-01-01T02:50:09;15.10;2.30
31455;DHT22;18084;53.028;8.834;2023-01-01T02:55:25;15.00;5.50
31455;DHT22;18084;53.028;8.834;2023-01-01T02:57:57;15.00;1.00
31455;DHT22;18084;53.028;8.834;2023-01-01T03:00:44;15.10;2.60
31455;DHT22;18084;53.028;8.834;2023-01-01T03:03:19;15.00;18.60
31455;DHT22;18084;53.028;8.834;2023-01-01T03:06:14;14.90;17.40
31455;DHT22;18084;53.028;8.834;2023-01-01T03:09:07;14.90;21.70
31455;DHT22;18084;53.028;8.834;2023-01-01T03:11:55;14.90;21.10
31455;DHT22;18084;53.028;8.834;2023-01-01T03:17:01;14.90;27.00
31455;DHT22;18084;53.028;8.834;2023-01-01T03:19:29;14.80;26.00
31455;DHT22;18084;53.028;8.834;2023-01-01T03:26:57;14.70;28.40
31455;DHT22;18084;53.028;8.834;2023-01-01T03:29:23;14.70;29.90
31455;DHT22;18084;53.028;8.834;2023-01-01T03:31:52;14.60;29.60
31455;DHT22;18084;53.028;8.834;2023-01-01T03:34:21;14.60;26.20
31455;DHT22;18084;53.028;8.834;2023-01-01T03:36:49;14.60;20.50
31455;DHT22;18084;53.028;8.834;2023-01-01T03:39:18;14.70;16.20
31455;DHT22;18084;53.028;8.834;2023-01-01T03:44:21;14.70;12.90
31455;DHT22;18084;53.028;8.834;2023-01-01T03:46:48;14.70;2.70
31455;DHT22;18084;53.028;8.834;2023-01-01T03:49:14;14.80;1.00
31455;DHT22;18084;53.028;8.834;2023-01-01T03:54:27;14.80;1.00
31455;DHT22;18084;53.028;8.834;2023-01-01T03:56:57;14.70;1.50
31455;DHT22;18084;53.028;8.834;2023-01-01T03:59:37;14.80;1.00
31455;DHT22;18084;53.028;8.834;2023-01-01T04:02:05;14.70;1.00
31455;DHT22;18084;53.028;8.834;2023-01-01T04:04:31;14.70;1.00
31455;DHT22;18084;53.028;8.834;2023-01-01T04:06:58;14.70;1.00
31455;DHT22;18084;53.028;8.834;2023-01-01T04:09:25;14.70;1.00
31455;DHT22;18084;53.028;8.834;2023-01-01T04:11:52;14.70;1.00
31455;DHT22;18084;53.028;8.834;2023-01-01T04:14:31;14.90;1.00
31455;DHT22;18084;53.028;8.834;2023-01-01T04:16:57;14.90;1.00
31455;DHT22;18084;53.028;8.834;2023-01-01T04:19:23;15.00;1.00
31455;DHT22;18084;53.028;8.834;2023-01-01T04:21:49;14.90;1.00
31455;DHT22;18084;53.028;8.834;2023-01-01T04:24:14;15.00;1.00
31455;DHT22;18084;53.028;8.834;2023-01-01T04:26:40;15.00;1.00
31455;DHT22;18084;53.028;8.834;2023-01-01T04:29:06;15.00;1.00
31455;DHT22;18084;53.028;8.834;2023-01-01T04:31:33;15.00;1.00
31455;DHT22;18084;53.028;8.834;2023-01-01T04:33:58;15.00;1.00
31455;DHT22;18084;53.028;8.834;2023-01-01T04:36:24;15.00;1.00
31455;DHT22;18084;53.028;8.834;2023-01-01T04:38:49;14.90;1.00
31455;DHT22;18084;53.028;8.834;2023-01-01T04:41:14;14.90;1.00
31455;DHT22;18084;53.028;8.834;2023-01-01T04:43:40;14.80;1.00
31455;DHT22;18084;53.028;8.834;2023-01-01T04:46:05;15.00;1.00
31455;DHT22;18084;53.028;8.834;2023-01-01T04:48:31;14.90;1.00
31455;DHT22;18084;53.028;8.834;2023-01-01T04:50:57;14.90;1.00
31455;DHT22;18084;53.028;8.834;2023-01-01T04:53:23;14.90;1.00
31455;DHT22;18084;53.028;8.834;2023-01-01T04:55:48;15.00;1.00
31455;DHT22;18084;53.028;8.834;2023-01-01T04:58:14;15.10;99.90
31455;DHT22;18084;53.028;8.834;2023-01-01T05:00:40;15.00;99.90
31455;DHT22;18084;53.028;8.834;2023-01-01T05:03:05;15.00;99.90
31455;DHT22;18084;53.028;8.834;2023-01-01T05:05:30;15.00;99.90
31455;DHT22;18084;53.028;8.834;2023-01-01T05:07:56;14.90;1.00
31455;DHT22;18084;53.028;8.834;2023-01-01T05:10:21;14.90;1.00
31455;DHT22;18084;53.028;8.834;2023-01-01T05:12:47;14.90;1.00
31455;DHT22;18084;53.028;8.834;2023-01-01T05:15:12;14.80;1.00
31455;DHT22;18084;53.028;8.834;2023-01-01T05:17:38;14.80;1.00
31455;DHT22;18084;53.028;8.834;2023-01-01T05:20:03;14.80;1.00
31455;DHT22;18084;53.028;8.834;2023-01-01T05:22:29;14.80;1.00
31455;DHT22;18084;53.028;8.834;2023-01-01T05:24:54;14.70;1.00
31455;DHT22;18084;53.028;8.834;2023-01-01T05:27:20;14.80;1.00
31455;DHT22;18084;53.028;8.834;2023-01-01T05:29:45;14.80;99.90
31455;DHT22;18084;53.028;8.834;2023-01-01T05:32:10;14.70;1.00
31455;DHT22;18084;53.028;8.834;2023-01-01T05:34:36;14.70;1.00
31455;DHT22;18084;53.028;8.834;2023-01-01T05:37:01;14.60;1.00
31455;DHT22;18084;53.028;8.834;2023-01-01T05:39:27;14.70;1.00
31455;DHT22;18084;53.028;8.834;2023-01-01T05:41:52;14.70;1.00
31455;DHT22;18084;53.028;8.834;2023-01-01T05:44:18;14.70;1.00
31455;DHT22;18084;53.028;8.834;2023-01-01T05:46:43;14.70;99.90
31455;DHT22;18084;53.028;8.834;2023-01-01T05:49:09;14.80;99.90
31455;DHT22;18084;53.028;8.834;2023-01-01T05:51:35;14.80;99.90
31455;DHT22;18084;53.028;8.834;2023-01-01T05:54:01;14.70;99.90
31455;DHT22;18084;53.028;8.834;2023-01-01T05:56:26;14.70;99.90
31455;DHT22;18084;53.028;8.834;2023-01-01T05:58:52;14.70;99.90
31455;DHT22;18084;53.028;8.834;2023-01-01T06:01:22;14.80;99.90
31455;DHT22;18084;53.028;8.834;2023-01-01T06:03:48;14.70;99.90
31455;DHT22;18084;53.028;8.834;2023-01-01T06:06:14;14.80;99.90
31455;DHT22;18084;53.028;8.834;2023-01-01T06:08:40;14.80;99.90
31455;DHT22;18084;53.028;8.834;2023-01-01T06:11:07;14.70;99.90
31455;DHT22;18084;53.028;8.834;2023-01-01T06:13:33;14.70;99.90
31455;DHT22;18084;53.028;8.834;2023-01-01T06:15:59;14.70;99.90
31455;DHT22;18084;53.028;8.834;2023-01-01T06:18:25;14.70;99.90
31455;DHT22;18084;53.028;8.834;2023-01-01T06:20:51;14.60;99.90
31455;DHT22;18084;53.028;8.834;2023-01-01T06:23:16;14.60;99.90
31455;DHT22;18084;53.028;8.834;2023-01-01T06:25:42;14.70;99.90
31455;DHT22;18084;53.028;8.834;2023-01-01T06:28:07;14.60;99.90
31455;DHT22;18084;53.028;8.834;2023-01-01T06:30:33;14.60;99.90
31455;DHT22;18084;53.028;8.834;2023-01-01T06:32:59;14.70;99.90
31455;DHT22;18084;53.028;8.834;2023-01-01T06:35:24;14.70;99.90
31455;DHT22;18084;53.028;8.834;2023-01-01T06:37:50;14.70;99.90
31455;DHT22;18084;53.028;8.834;2023-01-01T06:40:15;14.60;99.90
31455;DHT22;18084;53.028;8.834;2023-01-01T06:42:41;14.60;99.90
31455;DHT22;18084;53.028;8.834;2023-01-01T06:45:06;14.60;99.90
31455;DHT22;18084;53.028;8.834;2023-01-01T06:47:32;14.70;99.90
31455;DHT22;18084;53.028;8.834;2023-01-01T06:49:58;14.70;99.90
31455;DHT22;18084;53.028;8.834;2023-01-01T06:52:24;14.70;99.90
31455;DHT22;18084;53.028;8.834;2023-01-01T06:54:49;14.60;1.00
31455;DHT22;18084;53.028;8.834;2023-01-01T06:57:14;14.60;1.00
31455;DHT22;18084;53.028;8.834;2023-01-01T06:59:40;14.60;1.00
31455;DHT22;18084;53.028;8.834;2023-01-01T07:02:07;14.50;1.00
31455;DHT22;18084;53.028;8.834;2023-01-01T07:04:33;14.50;1.00
31455;DHT22;18084;53.028;8.834;2023-01-01T07:06:58;14.50;1.00
31455;DHT22;18084;53.028;8.834;2023-01-01T07:09:25;14.40;1.00
31455;DHT22;18084;53.028;8.834;2023-01-01T07:11:50;14.30;1.00
31455;DHT22;18084;53.028;8.834;2023-01-01T07:14:16;14.40;1.00
31455;DHT22;18084;53.028;8.834;2023-01-01T07:16:41;14.40;1.00
31455;DHT22;18084;53.028;8.834;2023-01-01T07:19:07;14.30;1.00
31455;DHT22;18084;53.028;8.834;2023-01-01T07:21:33;14.30;1.00
31455;DHT22;18084;53.028;8.834;2023-01-01T07:24:04;14.30;1.00
31455;DHT22;18084;53.028;8.834;2023-01-01T07:26:30;14.20;1.00
31455;DHT22;18084;53.028;8.834;2023-01-01T07:28:56;14.30;1.00
31455;DHT22;18084;53.028;8.834;2023-01-01T07:31:22;14.30;1.00
31455;DHT22;18084;53.028;8.834;2023-01-01T07:33:47;14.20;1.00
31455;DHT22;18084;53.028;8.834;2023-01-01T07:36:13;14.20;1.00
31455;DHT22;18084;53.028;8.834;2023-01-01T07:38:38;14.20;1.00
31455;DHT22;18084;53.028;8.834;2023-01-01T07:41:04;14.20;1.00
31455;DHT22;18084;53.028;8.834;2023-01-01T07:43:29;14.20;1.00
31455;DHT22;18084;53.028;8.834;2023-01-01T07:45:55;14.30;1.00
31455;DHT22;18084;53.028;8.834;2023-01-01T07:48:21;14.30;1.00
31455;DHT22;18084;53.028;8.834;2023-01-01T07:50:46;14.20;1.00
31455;DHT22;18084;53.028;8.834;2023-01-01T07:53:12;14.30;1.00
31455;DHT22;18084;53.028;8.834;2023-01-01T07:55:37;14.20;1.00
31455;DHT22;18084;53.028;8.834;2023-01-01T07:58:03;14.20;1.00
31455;DHT22;18084;53.028;8.834;2023-01-01T08:00:28;14.20;1.00
31455;DHT22;18084;53.028;8.834;2023-01-01T08:02:54;14.20;1.00
31455;DHT22;18084;53.028;8.834;2023-01-01T08:05:19;14.20;1.00
31455;DHT22;18084;53.028;8.834;2023-01-01T08:07:49;14.10;1.00
31455;DHT22;18084;53.028;8.834;2023-01-01T08:12:42;14.20;1.00
31455;DHT22;18084;53.028;8.834;2023-01-01T08:15:08;14.20;1.00
31455;DHT22;18084;53.028;8.834;2023-01-01T08:17:34;14.10;1.00
31455;DHT22;18084;53.028;8.834;2023-01-01T08:20:00;14.20;1.00
31455;DHT22;18084;53.028;8.834;2023-01-01T08:22:25;14.20;1.00
31455;DHT22;18084;53.028;8.834;2023-01-01T08:24:51;14.20;1.00
31455;DHT22;18084;53.028;8.834;2023-01-01T08:27:16;14.20;1.00
31455;DHT22;18084;53.028;8.834;2023-01-01T08:29:42;14.10;1.00
31455;DHT22;18084;53.028;8.834;2023-01-01T08:32:09;14.20;1.00
31455;DHT22;18084;53.028;8.834;2023-01-01T08:34:34;14.10;1.00
31455;DHT22;18084;53.028;8.834;2023-01-01T08:36:59;14.10;1.00
31455;DHT22;18084;53.028;8.834;2023-01-01T08:39:25;14.10;1.00
31455;DHT22;18084;53.028;8.834;2023-01-01T08:41:50;14.10;1.00
31455;DHT22;18084;53.028;8.834;2023-01-01T08:44:16;14.10;1.00
31455;DHT22;18084;53.028;8.834;2023-01-01T08:46:41;14.10;1.00
31455;DHT22;18084;53.028;8.834;2023-01-01T08:49:07;14.10;1.00
31455;DHT22;18084;53.028;8.834;2023-01-01T08:51:32;14.10;1.00
31455;DHT22;18084;53.028;8.834;2023-01-01T08:53:58;14.10;1.00
31455;DHT22;18084;53.028;8.834;2023-01-01T08:56:23;14.10;1.00
31455;DHT22;18084;53.028;8.834;2023-01-01T08:58:49;14.10;1.00
31455;DHT22;18084;53.028;8.834;2023-01-01T09:01:14;14.10;1.00
31455;DHT22;18084;53.028;8.834;2023-01-01T09:03:40;14.10;1.00
31455;DHT22;18084;53.028;8.834;2023-01-01T09:06:06;14.10;1.00
31455;DHT22;18084;53.028;8.834;2023-01-01T09:08:31;14.20;1.00
31455;DHT22;18084;53.028;8.834;2023-01-01T09:10:58;14.20;99.90
31455;DHT22;18084;53.028;8.834;2023-01-01T09:13:24;14.30;99.90
31455;DHT22;18084;53.028;8.834;2023-01-01T09:15:49;14.20;99.90
31455;DHT22;18084;53.028;8.834;2023-01-01T09:18:15;14.30;99.90
31455;DHT22;18084;53.028;8.834;2023-01-01T09:20:40;14.30;1.00
31455;DHT22;18084;53.028;8.834;2023-01-01T09:23:06;14.30;99.90
31455;DHT22;18084;53.028;8.834;2023-01-01T09:25:32;14.40;1.00
31455;DHT22;18084;53.028;8.834;2023-01-01T09:27:58;14.40;99.90
31455;DHT22;18084;53.028;8.834;2023-01-01T09:30:24;14.40;99.90
31455;DHT22;18084;53.028;8.834;2023-01-01T09:32:49;14.40;1.00
31455;DHT22;18084;53.028;8.834;2023-01-01T09:35:14;14.30;1.00
31455;DHT22;18084;53.028;8.834;2023-01-01T09:37:40;14.30;1.00
31455;DHT22;18084;53.028;8.834;2023-01-01T09:40:05;14.20;99.90
31455;DHT22;18084;53.028;8.834;2023-01-01T09:42:35;14.20;99.90
31455;DHT22;18084;53.028;8.834;2023-01-01T09:47:45;14.20;99.90
31455;DHT22;18084;53.028;8.834;2023-01-01T09:50:12;14.20;1.00
31455;DHT22;18084;53.028;8.834;2023-01-01T09:52:40;14.10;99.90
31455;DHT22;18084;53.028;8.834;2023-01-01T09:55:10;14.20;99.90
31455;DHT22;18084;53.028;8.834;2023-01-01T09:57:37;14.10;6.30
31455;DHT22;18084;53.028;8.834;2023-01-01T10:00:05;14.10;99.90
31455;DHT22;18084;53.028;8.834;2023-01-01T10:05:30;13.90;99.90
31455;DHT22;18084;53.028;8.834;2023-01-01T10:08:02;13.90;45.90
31455;DHT22;18084;53.028;8.834;2023-01-01T10:10:34;13.90;99.90
31455;DHT22;18084;53.028;8.834;2023-01-01T10:13:07;13.90;1.00
31455;DHT22;18084;53.028;8.834;2023-01-01T10:15:41;13.80;99.90
31455;DHT22;18084;53.028;8.834;2023-01-01T10:18:15;13.80;99.90
31455;DHT22;18084;53.028;8.834;2023-01-01T10:20:43;13.80;99.90
31455;DHT22;18084;53.028;8.834;2023-01-01T10:23:20;13.80;99.90
31455;DHT22;18084;53.028;8.834;2023-01-01T10:25:46;13.80;99.90
31455;DHT22;18084;53.028;8.834;2023-01-01T10:28:20;13.80;99.90
31455;DHT22;18084;53.028;8.834;2023-01-01T10:30:48;13.80;99.90
31455;DHT22;18084;53.028;8.834;2023-01-01T10:33:15;13.80;99.90
31455;DHT22;18084;53.028;8.834;2023-01-01T10:35:43;13.80;39.10
31455;DHT22;18084;53.028;8.834;2023-01-01T10:38:11;13.80;1.00
31455;DHT22;18084;53.028;8.834;2023-01-01T10:40:40;13.90;60.30
31455;DHT22;18084;53.028;8.834;2023-01-01T10:43:08;14.00;1.00
31455;DHT22;18084;53.028;8.834;2023-01-01T10:45:36;13.90;99.90
31455;DHT22;18084;53.028;8.834;2023-01-01T10:48:21;14.00;99.90
31455;DHT22;18084;53.028;8.834;2023-01-01T10:50:54;14.00;99.90
31455;DHT22;18084;53.028;8.834;2023-01-01T10:53:37;14.00;99.90
31455;DHT22;18084;53.028;8.834;2023-01-01T10:56:06;13.90;99.90
31455;DHT22;18084;53.028;8.834;2023-01-01T11:01:18;13.90;99.90
31455;DHT22;18084;53.028;8.834;2023-01-01T11:03:52;13.80;99.90
31455;DHT22;18084;53.028;8.834;2023-01-01T11:08:56;13.70;1.00
31455;DHT22;18084;53.028;8.834;2023-01-01T11:11:25;13.60;1.00
31455;DHT22;18084;53.028;8.834;2023-01-01T11:13:51;13.60;12.50
31455;DHT22;18084;53.028;8.834;2023-01-01T11:16:17;13.50;99.90
31455;DHT22;18084;53.028;8.834;2023-01-01T11:18:43;13.50;99.90
31455;DHT22;18084;53.028;8.834;2023-01-01T11:21:08;13.40;99.90
31455;DHT22;18084;53.028;8.834;2023-01-01T11:23:35;13.40;99.90
31455;DHT22;18084;53.028;8.834;2023-01-01T11:28:26;13.30;99.90
31455;DHT22;18084;53.028;8.834;2023-01-01T11:31:00;13.30;99.90
31455;DHT22;18084;53.028;8.834;2023-01-01T11:33:30;13.30;99.90
31455;DHT22;18084;53.028;8.834;2023-01-01T11:35:56;13.20;99.90
31455;DHT22;18084;53.028;8.834;2023-01-01T11:38:22;13.20;99.90
31455;DHT22;18084;53.028;8.834;2023-01-01T11:40:50;13.20;99.90
31455;DHT22;18084;53.028;8.834;2023-01-01T11:43:20;13.20;1.00
31455;DHT22;18084;53.028;8.834;2023-01-01T11:45:46;13.20;1.00
31455;DHT22;18084;53.028;8.834;2023-01-01T11:48:17;13.20;1.00
31455;DHT22;18084;53.028;8.834;2023-01-01T11:50:50;13.20;1.00
31455;DHT22;18084;53.028;8.834;2023-01-01T12:00:38;13.20;1.00
31455;DHT22;18084;53.028;8.834;2023-01-01T12:03:11;13.30;1.00
31455;DHT22;18084;53.028;8.834;2023-01-01T12:05:44;13.30;1.00
31455;DHT22;18084;53.028;8.834;2023-01-01T12:08:11;13.30;1.00
31455;DHT22;18084;53.028;8.834;2023-01-01T12:10:50;13.30;1.00
31455;DHT22;18084;53.028;8.834;2023-01-01T12:13:19;13.30;1.00
31455;DHT22;18084;53.028;8.834;2023-01-01T12:15:52;13.30;1.00
31455;DHT22;18084;53.028;8.834;2023-01-01T12:18:23;13.30;1.00
31455;DHT22;18084;53.028;8.834;2023-01-01T12:20:58;13.40;1.00
31455;DHT22;18084;53.028;8.834;2023-01-01T12:23:24;13.30;1.00
31455;DHT22;18084;53.028;8.834;2023-01-01T12:25:58;13.30;1.00
31455;DHT22;18084;53.028;8.834;2023-01-01T12:28:31;13.20;1.00
31455;DHT22;18084;53.028;8.834;2023-01-01T12:31:22;13.20;1.00
31455;DHT22;18084;53.028;8.834;2023-01-01T12:33:55;13.20;1.00
31455;DHT22;18084;53.028;8.834;2023-01-01T12:47:31;13.20;1.00
31455;DHT22;18084;53.028;8.834;2023-01-01T12:52:55;13.30;1.00
31455;DHT22;18084;53.028;8.834;2023-01-01T12:55:24;13.30;1.00
31455;DHT22;18084;53.028;8.834;2023-01-01T12:58:18;13.30;1.00
31455;DHT22;18084;53.028;8.834;2023-01-01T13:00:42;13.10;1.00
31455;DHT22;18084;53.028;8.834;2023-01-01T13:03:20;13.10;1.00
31455;DHT22;18084;53.028;8.834;2023-01-01T13:05:48;13.10;1.00
31455;DHT22;18084;53.028;8.834;2023-01-01T13:08:14;13.10;1.00
31455;DHT22;18084;53.028;8.834;2023-01-01T13:10:41;13.00;1.00
31455;DHT22;18084;53.028;8.834;2023-01-01T13:13:07;13.00;1.00
31455;DHT22;18084;53.028;8.834;2023-01-01T13:18:06;13.00;1.00
31455;DHT22;18084;53.028;8.834;2023-01-01T13:20:37;13.00;1.40
31455;DHT22;18084;53.028;8.834;2023-01-01T13:23:03;12.90;1.00
31455;DHT22;18084;53.028;8.834;2023-01-01T13:25:28;12.90;3.80
31455;DHT22;18084;53.028;8.834;2023-01-01T13:38:49;13.00;4.60
31455;DHT22;18084;53.028;8.834;2023-01-01T13:41:27;13.00;8.80
31455;DHT22;18084;53.028;8.834;2023-01-01T13:46:31;13.00;6.20
31455;DHT22;18084;53.028;8.834;2023-01-01T13:54:18;12.90;20.40
31455;DHT22;18084;53.028;8.834;2023-01-01T13:56:57;12.80;22.30
31455;DHT22;18084;53.028;8.834;2023-01-01T13:59:39;12.90;28.80
31455;DHT22;18084;53.028;8.834;2023-01-01T14:04:39;12.80;33.60
31455;DHT22;18084;53.028;8.834;2023-01-01T14:07:09;12.80;41.90
31455;DHT22;18084;53.028;8.834;2023-01-01T14:09:37;12.70;44.40
31455;DHT22;18084;53.028;8.834;2023-01-01T14:12:16;12.70;46.50
31455;DHT22;18084;53.028;8.834;2023-01-01T14:14:41;12.70;47.90
31455;DHT22;18084;53.028;8.834;2023-01-01T14:17:07;12.70;51.40
31455;DHT22;18084;53.028;8.834;2023-01-01T14:19:32;12.70;55.00
31455;DHT22;18084;53.028;8.834;2023-01-01T14:21:58;12.60;60.50
31455;DHT22;18084;53.028;8.834;2023-01-01T14:24:24;12.60;55.40
31455;DHT22;18084;53.028;8.834;2023-01-01T14:26:51;12.50;61.20
31455;DHT22;18084;53.028;8.834;2023-01-01T14:29:21;12.50;56.20
31455;DHT22;18084;53.028;8.834;2023-01-01T14:31:49;12.50;57.10
31455;DHT22;18084;53.028;8.834;2023-01-01T14:34:25;12.40;60.30
31455;DHT22;18084;53.028;8.834;2023-01-01T14:36:52;12.40;62.70
31455;DHT22;18084;53.028;8.834;2023-01-01T14:39:28;12.40;63.40
31455;DHT22;18084;53.028;8.834;2023-01-01T14:41:58;12.40;65.30
31455;DHT22;18084;53.028;8.834;2023-01-01T14:44:26;12.30;69.70
31455;DHT22;18084;53.028;8.834;2023-01-01T14:46:54;12.30;69.50
31455;DHT22;18084;53.028;8.834;2023-01-01T14:49:27;12.30;71.90
31455;DHT22;18084;53.028;8.834;2023-01-01T14:52:00;12.30;75.80
31455;DHT22;18084;53.028;8.834;2023-01-01T14:54:29;12.30;78.70
31455;DHT22;18084;53.028;8.834;2023-01-01T14:56:55;12.30;79.20
31455;DHT22;18084;53.028;8.834;2023-01-01T14:59:25;12.30;80.20
31455;DHT22;18084;53.028;8.834;2023-01-01T15:01:58;12.30;83.00
31455;DHT22;18084;53.028;8.834;2023-01-01T15:04:24;12.20;84.00
31455;DHT22;18084;53.028;8.834;2023-01-01T15:06:57;12.30;85.30
31455;DHT22;18084;53.028;8.834;2023-01-01T15:09:23;12.30;84.70
31455;DHT22;18084;53.028;8.834;2023-01-01T15:11:50;12.30;86.20
31455;DHT22;18084;53.028;8.834;2023-01-01T15:14:32;12.30;87.30
31455;DHT22;18084;53.028;8.834;2023-01-01T15:17:08;12.30;89.20
31455;DHT22;18084;53.028;8.834;2023-01-01T15:19:33;12.30;90.40
31455;DHT22;18084;53.028;8.834;2023-01-01T15:22:00;12.20;91.60
31455;DHT22;18084;53.028;8.834;2023-01-01T15:24:25;12.20;92.00
31455;DHT22;18084;53.028;8.834;2023-01-01T15:26:54;12.20;93.00
31455;DHT22;18084;53.028;8.834;2023-01-01T15:29:23;12.20;95.10
31455;DHT22;18084;53.028;8.834;2023-01-01T15:31:52;12.10;94.80
31455;DHT22;18084;53.028;8.834;2023-01-01T15:34:19;12.10;96.00
31455;DHT22;18084;53.028;8.834;2023-01-01T15:36:47;12.10;96.00
31455;DHT22;18084;53.028;8.834;2023-01-01T15:39:12;12.10;97.10
31455;DHT22;18084;53.028;8.834;2023-01-01T15:41:39;12.10;97.40
31455;DHT22;18084;53.028;8.834;2023-01-01T15:44:06;12.00;98.40
31455;DHT22;18084;53.028;8.834;2023-01-01T15:46:32;12.00;99.30
31455;DHT22;18084;53.028;8.834;2023-01-01T15:48:58;11.90;99.90
31455;DHT22;18084;53.028;8.834;2023-01-01T15:51:23;11.90;99.90
31455;DHT22;18084;53.028;8.834;2023-01-01T15:56:16;11.80;99.90
31455;DHT22;18084;53.028;8.834;2023-01-01T15:58:52;11.80;99.90
31455;DHT22;18084;53.028;8.834;2023-01-01T16:01:21;11.70;99.90
31455;DHT22;18084;53.028;8.834;2023-01-01T16:03:47;11.70;99.90
31455;DHT22;18084;53.028;8.834;2023-01-01T16:06:17;11.70;99.90
31455;DHT22;18084;53.028;8.834;2023-01-01T16:08:43;11.70;99.90
31455;DHT22;18084;53.028;8.834;2023-01-01T16:11:09;11.60;99.90
31455;DHT22;18084;53.028;8.834;2023-01-01T16:13:37;11.60;99.90
31455;DHT22;18084;53.028;8.834;2023-01-01T16:16:03;11.60;99.90
31455;DHT22;18084;53.028;8.834;2023-01-01T16:18:33;11.60;99.90
31455;DHT22;18084;53.028;8.834;2023-01-01T16:20:59;11.60;99.90
31455;DHT22;18084;53.028;8.834;2023-01-01T16:23:25;11.50;99.90
31455;DHT22;18084;53.028;8.834;2023-01-01T16:25:51;11.50;99.90
31455;DHT22;18084;53.028;8.834;2023-01-01T16:28:16;11.50;99.90
31455;DHT22;18084;53.028;8.834;2023-01-01T16:30:42;11.40;99.90
31455;DHT22;18084;53.028;8.834;2023-01-01T16:33:14;11.40;99.90
31455;DHT22;18084;53.028;8.834;2023-01-01T16:35:40;11.40;99.90
31455;DHT22;18084;53.028;8.834;2023-01-01T16:38:06;11.40;99.90
31455;DHT22;18084;53.028;8.834;2023-01-01T16:40:31;11.40;99.90
31455;DHT22;18084;53.028;8.834;2023-01-01T16:42:57;11.30;99.90
31455;DHT22;18084;53.028;8.834;2023-01-01T16:45:22;11.30;99.90
31455;DHT22;18084;53.028;8.834;2023-01-01T16:47:47;11.40;99.90
31455;DHT22;18084;53.028;8.834;2023-01-01T16:50:13;11.30;99.90
31455;DHT22;18084;53.028;8.834;2023-01-01T16:52:38;11.30;99.90
31455;DHT22;18084;53.028;8.834;2023-01-01T16:55:04;11.30;99.90
31455;DHT22;18084;53.028;8.834;2023-01-01T16:57:30;11.30;99.90
31455;DHT22;18084;53.028;8.834;2023-01-01T16:59:56;11.30;99.90
31455;DHT22;18084;53.028;8.834;2023-01-01T17:02:22;11.30;99.90
31455;DHT22;18084;53.028;8.834;2023-01-01T17:04:47;11.20;99.90
31455;DHT22;18084;53.028;8.834;2023-01-01T17:07:13;11.20;99.90
31455;DHT22;18084;53.028;8.834;2023-01-01T17:09:38;11.20;99.90
31455;DHT22;18084;53.028;8.834;2023-01-01T17:12:04;11.20;99.90
31455;DHT22;18084;53.028;8.834;2023-01-01T17:14:29;11.10;99.90